sensor_id;sensor_type;location;lat;lon;timestamp;pressure;altitude;pressure_sealevel;temperature;humidity
15263;BME280;7733;51.554;13.590;2023-03-30T00:01:06;100115.34;;;11.07;83.04
15263;BME280;7733;51.554;13.590;2023-03-30T00:03:37;100065.38;;;11.11;83.40
15263;BME280;7733;51.554;13.590;2023-03-30T00:06:04;100032.78;;;11.21;82.29
15263;BME280;7733;51.554;13.590;2023-03-30T00:08:31;100057.06;;;11.31;81.94
15263;BME280;7733;51.554;13.590;2023-03-30T00:11:12;100084.69;;;11.09;83.94
15263;BME280;7733;51.554;13.590;2023-03-30T00:13:40;100107.34;;;11.53;80.80
15263;BME280;7733;51.554;13.590;2023-03-30T00:16:09;100111.47;;;11.65;79.15
15263;BME280;7733;51.554;13.590;2023-03-30T00:18:35;100109.50;;;11.73;78.59
15263;BME280;7733;51.554;13.590;2023-03-30T00:21:02;100112.41;;;11.62;79.87
15263;BME280;7733;51.554;13.590;2023-03-30T00:23:29;100108.00;;;11.61;79.27
15263;BME280;7733;51.554;13.590;2023-03-30T00:25:55;100105.38;;;11.61;77.91
15263;BME280;7733;51.554;13.590;2023-03-30T00:28:21;100092.47;;;11.52;79.66
15263;BME280;7733;51.554;13.590;2023-03-30T00:30:48;100091.22;;;11.68;79.63
15263;BME280;7733;51.554;13.590;2023-03-30T00:33:14;100079.03;;;11.66;79.14
15263;BME280;7733;51.554;13.590;2023-03-30T00:35:40;100077.22;;;11.68;78.79
15263;BME280;7733;51.554;13.590;2023-03-30T00:38:06;100074.31;;;11.80;77.90
15263;BME280;7733;51.554;13.590;2023-03-30T00:40:33;100073.47;;;11.79;77.87
15263;BME280;7733;51.554;13.590;2023-03-30T00:43:02;100062.09;;;11.77;77.81
15263;BME280;7733;51.554;13.590;2023-03-30T00:45:34;100056.19;;;11.69;79.15
15263;BME280;7733;51.554;13.590;2023-03-30T00:48:09;100047.88;;;11.50;80.58
15263;BME280;7733;51.554;13.590;2023-03-30T00:50:41;100035.34;;;11.62;79.67
15263;BME280;7733;51.554;13.590;2023-03-30T00:55:46;100039.75;;;10.82;87.48
15263;BME280;7733;51.554;13.590;2023-03-30T00:58:16;100017.78;;;11.26;83.98
15263;BME280;7733;51.554;13.590;2023-03-30T01:00:43;100018.50;;;11.33;84.47
15263;BME280;7733;51.554;13.590;2023-03-30T01:03:31;99991.69;;;11.19;84.57
15263;BME280;7733;51.554;13.590;2023-03-30T01:06:02;99981.44;;;11.08;85.42
15263;BME280;7733;51.554;13.590;2023-03-30T01:08:30;99980.41;;;11.15;84.60
15263;BME280;7733;51.554;13.590;2023-03-30T01:11:05;99988.69;;;11.36;83.62
15263;BME280;7733;51.554;13.590;2023-03-30T01:13:38;99992.47;;;11.24;83.69
15263;BME280;7733;51.554;13.590;2023-03-30T01:40:35;99926.25;;;11.47;80.47
15263;BME280;7733;51.554;13.590;2023-03-30T01:46:09;99926.09;;;11.53;79.96
15263;BME280;7733;51.554;13.590;2023-03-30T01:49:15;99924.63;;;11.43;80.82
15263;BME280;7733;51.554;13.590;2023-03-30T01:51:49;99912.41;;;11.40;80.94
15263;BME280;7733;51.554;13.590;2023-03-30T01:54:25;99937.00;;;10.60;85.03
15263;BME280;7733;51.554;13.590;2023-03-30T01:57:04;99932.97;;;10.86;86.08
15263;BME280;7733;51.554;13.590;2023-03-30T01:59:39;99941.78;;;11.20;83.23
15263;BME280;7733;51.554;13.590;2023-03-30T02:02:10;99931.44;;;11.14;83.49
15263;BME280;7733;51.554;13.590;2023-03-30T02:04:41;99924.72;;;11.01;84.01
15263;BME280;7733;51.554;13.590;2023-03-30T02:07:18;99904.97;;;11.23;82.06
15263;BME280;7733;51.554;13.590;2023-03-30T02:09:49;99905.66;;;11.30;81.04
15263;BME280;7733;51.554;13.590;2023-03-30T02:12:19;99906.50;;;11.32;81.57
15263;BME280;7733;51.554;13.590;2023-03-30T02:14:47;99914.63;;;11.57;79.83
15263;BME280;7733;51.554;13.590;2023-03-30T02:17:21;99914.16;;;11.40;80.47
15263;BME280;7733;51.554;13.590;2023-03-30T02:19:48;99913.84;;;11.53;80.25
15263;BME280;7733;51.554;13.590;2023-03-30T02:22:17;99915.25;;;11.67;79.17
15263;BME280;7733;51.554;13.590;2023-03-30T02:24:48;99895.19;;;11.64;78.95
15263;BME280;7733;51.554;13.590;2023-03-30T02:27:15;99904.56;;;11.73;78.41
15263;BME280;7733;51.554;13.590;2023-03-30T02:29:44;99907.41;;;11.65;78.95
15263;BME280;7733;51.554;13.590;2023-03-30T02:32:19;99907.91;;;11.79;78.01
15263;BME280;7733;51.554;13.590;2023-03-30T02:35:22;99898.31;;;11.77;77.76
15263;BME280;7733;51.554;13.590;2023-03-30T02:38:27;99895.59;;;11.83;77.56
15263;BME280;7733;51.554;13.590;2023-03-30T02:44:04;99882.69;;;11.72;77.78
15263;BME280;7733;51.554;13.590;2023-03-30T02:47:07;99876.75;;;11.66;77.97
15263;BME280;7733;51.554;13.590;2023-03-30T02:49:59;99870.72;;;11.61;78.53
15263;BME280;7733;51.554;13.590;2023-03-30T02:52:47;99855.47;;;11.75;77.58
15263;BME280;7733;51.554;13.590;2023-03-30T02:58:10;99833.09;;;11.62;78.10
15263;BME280;7733;51.554;13.590;2023-03-30T03:01:03;99815.75;;;11.54;78.65
15263;BME280;7733;51.554;13.590;2023-03-30T03:03:42;99824.41;;;11.58;78.31
15263;BME280;7733;51.554;13.590;2023-03-30T03:06:10;99821.88;;;11.55;78.14
15263;BME280;7733;51.554;13.590;2023-03-30T03:08:42;99818.34;;;11.56;78.50
15263;BME280;7733;51.554;13.590;2023-03-30T03:11:09;99810.31;;;11.61;78.25
15263;BME280;7733;51.554;13.590;2023-03-30T03:13:36;99819.19;;;11.56;78.29
15263;BME280;7733;51.554;13.590;2023-03-30T03:16:04;99817.34;;;11.60;78.29
15263;BME280;7733;51.554;13.590;2023-03-30T03:18:30;99809.41;;;11.63;77.59
15263;BME280;7733;51.554;13.590;2023-03-30T03:20:57;99800.06;;;11.51;78.19
15263;BME280;7733;51.554;13.590;2023-03-30T03:23:23;99800.31;;;11.10;81.35
15263;BME280;7733;51.554;13.590;2023-03-30T03:25:49;99794.97;;;11.47;79.11
15263;BME280;7733;51.554;13.590;2023-03-30T03:28:15;99779.75;;;11.58;78.39
15263;BME280;7733;51.554;13.590;2023-03-30T03:30:41;99790.38;;;11.53;78.04
15263;BME280;7733;51.554;13.590;2023-03-30T03:33:07;99788.81;;;11.48;78.41
15263;BME280;7733;51.554;13.590;2023-03-30T03:35:33;99797.31;;;11.56;78.32
15263;BME280;7733;51.554;13.590;2023-03-30T03:37:58;99791.31;;;11.18;79.70
15263;BME280;7733;51.554;13.590;2023-03-30T03:40:24;99787.28;;;11.39;78.74
15263;BME280;7733;51.554;13.590;2023-03-30T03:42:50;99786.66;;;11.30;79.30
15263;BME280;7733;51.554;13.590;2023-03-30T03:45:16;99795.81;;;11.15;80.48
15263;BME280;7733;51.554;13.590;2023-03-30T03:47:42;99785.59;;;11.37;79.37
15263;BME280;7733;51.554;13.590;2023-03-30T03:50:08;99777.63;;;11.07;80.33
15263;BME280;7733;51.554;13.590;2023-03-30T03:52:37;99776.53;;;11.16;80.20
15263;BME280;7733;51.554;13.590;2023-03-30T03:55:04;99774.09;;;11.41;78.85
15263;BME280;7733;51.554;13.590;2023-03-30T03:57:30;99782.16;;;11.35;78.14
15263;BME280;7733;51.554;13.590;2023-03-30T03:59:56;99782.28;;;11.30;78.77
15263;BME280;7733;51.554;13.590;2023-03-30T04:02:25;99772.00;;;11.21;78.58
15263;BME280;7733;51.554;13.590;2023-03-30T04:04:51;99759.44;;;11.34;78.12
15263;BME280;7733;51.554;13.590;2023-03-30T04:07:18;99754.09;;;11.37;77.72
15263;BME280;7733;51.554;13.590;2023-03-30T04:09:43;99757.28;;;11.15;79.46
15263;BME280;7733;51.554;13.590;2023-03-30T04:12:09;99749.28;;;11.20;79.23
15263;BME280;7733;51.554;13.590;2023-03-30T04:14:35;99764.03;;;11.25;78.19
15263;BME280;7733;51.554;13.590;2023-03-30T04:17:01;99767.34;;;11.32;77.64
15263;BME280;7733;51.554;13.590;2023-03-30T04:19:27;99770.31;;;11.18;78.86
15263;BME280;7733;51.554;13.590;2023-03-30T04:21:56;99759.59;;;11.27;78.22
15263;BME280;7733;51.554;13.590;2023-03-30T04:24:24;99751.84;;;11.23;77.89
15263;BME280;7733;51.554;13.590;2023-03-30T04:26:54;99755.69;;;11.10;79.35
15263;BME280;7733;51.554;13.590;2023-03-30T04:29:22;99760.00;;;11.12;78.91
15263;BME280;7733;51.554;13.590;2023-03-30T04:31:48;99758.03;;;11.20;78.35
15263;BME280;7733;51.554;13.590;2023-03-30T04:34:16;99763.53;;;11.11;80.00
15263;BME280;7733;51.554;13.590;2023-03-30T04:36:47;99772.31;;;11.10;80.09
15263;BME280;7733;51.554;13.590;2023-03-30T04:39:13;99784.72;;;11.04;79.04
15263;BME280;7733;51.554;13.590;2023-03-30T04:41:43;99779.88;;;10.88;82.11
15263;BME280;7733;51.554;13.590;2023-03-30T04:44:10;99780.69;;;10.90;81.32
15263;BME280;7733;51.554;13.590;2023-03-30T04:46:36;99767.22;;;11.04;80.11
15263;BME280;7733;51.554;13.590;2023-03-30T04:49:03;99753.50;;;10.93;80.44
15263;BME280;7733;51.554;13.590;2023-03-30T04:51:29;99756.72;;;11.04;79.83
15263;BME280;7733;51.554;13.590;2023-03-30T04:53:55;99763.53;;;11.11;78.91
15263;BME280;7733;51.554;13.590;2023-03-30T04:56:21;99762.44;;;10.86;80.40
15263;BME280;7733;51.554;13.590;2023-03-30T04:58:47;99747.22;;;10.98;80.68
15263;BME280;7733;51.554;13.590;2023-03-30T05:01:13;99745.84;;;10.85;81.16
15263;BME280;7733;51.554;13.590;2023-03-30T05:03:38;99743.00;;;10.93;81.04
15263;BME280;7733;51.554;13.590;2023-03-30T05:06:05;99743.13;;;10.88;80.86
15263;BME280;7733;51.554;13.590;2023-03-30T05:08:30;99761.06;;;10.71;82.45
15263;BME280;7733;51.554;13.590;2023-03-30T05:11:01;99743.19;;;10.87;82.01
15263;BME280;7733;51.554;13.590;2023-03-30T05:13:27;99746.88;;;11.12;80.45
15263;BME280;7733;51.554;13.590;2023-03-30T05:15:55;99746.06;;;10.76;83.38
15263;BME280;7733;51.554;13.590;2023-03-30T05:18:21;99733.75;;;11.12;80.79
15263;BME280;7733;51.554;13.590;2023-03-30T05:20:47;99741.19;;;10.95;81.43
15263;BME280;7733;51.554;13.590;2023-03-30T05:23:13;99736.59;;;11.05;81.28
15263;BME280;7733;51.554;13.590;2023-03-30T05:25:42;99729.13;;;10.89;81.41
15263;BME280;7733;51.554;13.590;2023-03-30T05:28:13;99713.88;;;10.70;84.93
15263;BME280;7733;51.554;13.590;2023-03-30T05:30:39;99716.69;;;10.96;82.72
15263;BME280;7733;51.554;13.590;2023-03-30T05:33:04;99719.59;;;11.18;81.27
15263;BME280;7733;51.554;13.590;2023-03-30T05:35:35;99710.97;;;10.80;83.71
15263;BME280;7733;51.554;13.590;2023-03-30T05:38:01;99729.00;;;10.94;83.06
15263;BME280;7733;51.554;13.590;2023-03-30T05:40:28;99711.13;;;11.08;81.66
15263;BME280;7733;51.554;13.590;2023-03-30T05:42:54;99713.84;;;11.05;82.12
15263;BME280;7733;51.554;13.590;2023-03-30T05:45:20;99707.31;;;11.18;81.38
15263;BME280;7733;51.554;13.590;2023-03-30T05:47:46;99709.00;;;10.54;85.28
15263;BME280;7733;51.554;13.590;2023-03-30T05:50:11;99700.63;;;11.08;82.38
15263;BME280;7733;51.554;13.590;2023-03-30T05:52:37;99701.28;;;10.84;83.79
15263;BME280;7733;51.554;13.590;2023-03-30T05:55:03;99686.28;;;10.89;83.26
15263;BME280;7733;51.554;13.590;2023-03-30T05:57:29;99682.75;;;11.22;82.01
15263;BME280;7733;51.554;13.590;2023-03-30T05:59:55;99688.06;;;11.19;81.35
15263;BME280;7733;51.554;13.590;2023-03-30T06:02:20;99694.19;;;11.18;82.32
15263;BME280;7733;51.554;13.590;2023-03-30T06:04:46;99697.19;;;11.06;82.83
15263;BME280;7733;51.554;13.590;2023-03-30T06:07:12;99689.63;;;11.26;82.77
15263;BME280;7733;51.554;13.590;2023-03-30T06:09:38;99708.31;;;11.14;83.29
15263;BME280;7733;51.554;13.590;2023-03-30T06:12:04;99711.03;;;11.11;82.51
15263;BME280;7733;51.554;13.590;2023-03-30T06:14:30;99714.19;;;11.24;84.07
15263;BME280;7733;51.554;13.590;2023-03-30T06:16:56;99712.94;;;11.37;83.15
15263;BME280;7733;51.554;13.590;2023-03-30T06:19:22;99713.31;;;11.54;82.03
15263;BME280;7733;51.554;13.590;2023-03-30T06:21:48;99699.56;;;11.76;80.29
15263;BME280;7733;51.554;13.590;2023-03-30T06:24:13;99690.13;;;11.39;83.17
15263;BME280;7733;51.554;13.590;2023-03-30T06:26:40;99699.31;;;11.85;80.09
15263;BME280;7733;51.554;13.590;2023-03-30T06:29:06;99688.53;;;11.94;79.70
15263;BME280;7733;51.554;13.590;2023-03-30T06:31:32;99680.91;;;11.55;80.83
15263;BME280;7733;51.554;13.590;2023-03-30T06:33:58;99670.81;;;11.71;80.62
15263;BME280;7733;51.554;13.590;2023-03-30T06:36:24;99664.59;;;11.74;81.50
15263;BME280;7733;51.554;13.590;2023-03-30T06:38:49;99663.47;;;12.10;78.89
15263;BME280;7733;51.554;13.590;2023-03-30T06:41:15;99660.38;;;11.98;79.92
15263;BME280;7733;51.554;13.590;2023-03-30T06:43:41;99657.91;;;12.19;78.31
15263;BME280;7733;51.554;13.590;2023-03-30T06:46:07;99648.19;;;12.23;77.88
15263;BME280;7733;51.554;13.590;2023-03-30T06:48:33;99652.22;;;12.33;77.15
15263;BME280;7733;51.554;13.590;2023-03-30T06:51:00;99667.19;;;12.31;77.59
15263;BME280;7733;51.554;13.590;2023-03-30T06:53:26;99657.16;;;12.16;78.41
15263;BME280;7733;51.554;13.590;2023-03-30T06:55:57;99654.94;;;12.30;78.11
15263;BME280;7733;51.554;13.590;2023-03-30T06:58:25;99648.22;;;12.48;77.10
15263;BME280;7733;51.554;13.590;2023-03-30T07:00:52;99637.53;;;12.53;76.84
15263;BME280;7733;51.554;13.590;2023-03-30T07:03:19;99631.81;;;12.41;77.65
15263;BME280;7733;51.554;13.590;2023-03-30T07:05:51;99622.34;;;12.61;76.89
15263;BME280;7733;51.554;13.590;2023-03-30T07:08:18;99623.13;;;12.64;76.97
15263;BME280;7733;51.554;13.590;2023-03-30T07:10:46;99628.28;;;12.41;78.73
15263;BME280;7733;51.554;13.590;2023-03-30T07:13:13;99629.81;;;12.48;77.99
15263;BME280;7733;51.554;13.590;2023-03-30T07:15:41;99635.09;;;12.20;80.78
15263;BME280;7733;51.554;13.590;2023-03-30T07:18:07;99608.59;;;12.77;77.89
15263;BME280;7733;51.554;13.590;2023-03-30T07:20:32;99622.03;;;12.95;76.96
15263;BME280;7733;51.554;13.590;2023-03-30T07:22:58;99624.34;;;12.79;78.84
15263;BME280;7733;51.554;13.590;2023-03-30T07:25:24;99619.13;;;12.77;78.34
15263;BME280;7733;51.554;13.590;2023-03-30T07:27:49;99615.31;;;12.86;78.82
15263;BME280;7733;51.554;13.590;2023-03-30T07:30:15;99611.06;;;13.07;77.40
15263;BME280;7733;51.554;13.590;2023-03-30T07:32:41;99614.53;;;13.07;77.96
15263;BME280;7733;51.554;13.590;2023-03-30T07:35:07;99608.63;;;13.26;77.63
15263;BME280;7733;51.554;13.590;2023-03-30T07:37:33;99612.00;;;13.29;77.36
15263;BME280;7733;51.554;13.590;2023-03-30T07:40:00;99604.59;;;13.62;76.63
15263;BME280;7733;51.554;13.590;2023-03-30T07:42:25;99581.88;;;13.82;75.75
15263;BME280;7733;51.554;13.590;2023-03-30T07:44:51;99580.03;;;13.84;75.55
15263;BME280;7733;51.554;13.590;2023-03-30T07:47:17;99578.63;;;14.17;74.70
15263;BME280;7733;51.554;13.590;2023-03-30T07:49:43;99579.56;;;13.94;76.21
15263;BME280;7733;51.554;13.590;2023-03-30T07:52:08;99578.88;;;14.11;76.42
15263;BME280;7733;51.554;13.590;2023-03-30T07:54:35;99583.88;;;14.59;74.13
15263;BME280;7733;51.554;13.590;2023-03-30T07:57:00;99590.16;;;14.57;74.19
15263;BME280;7733;51.554;13.590;2023-03-30T07:59:26;99585.59;;;14.60;74.14
15263;BME280;7733;51.554;13.590;2023-03-30T08:01:52;99580.97;;;14.86;73.23
15263;BME280;7733;51.554;13.590;2023-03-30T08:04:20;99570.59;;;15.02;72.46
15263;BME280;7733;51.554;13.590;2023-03-30T08:06:48;99578.63;;;14.99;72.97
15263;BME280;7733;51.554;13.590;2023-03-30T08:09:17;99570.31;;;15.08;72.19
15263;BME280;7733;51.554;13.590;2023-03-30T08:11:44;99563.16;;;15.10;71.69
15263;BME280;7733;51.554;13.590;2023-03-30T08:14:10;99557.03;;;15.28;71.23
15263;BME280;7733;51.554;13.590;2023-03-30T08:16:35;99561.63;;;15.43;69.98
15263;BME280;7733;51.554;13.590;2023-03-30T08:19:01;99551.91;;;15.63;69.37
15263;BME280;7733;51.554;13.590;2023-03-30T08:21:27;99560.31;;;15.71;70.18
15263;BME280;7733;51.554;13.590;2023-03-30T08:23:54;99564.13;;;15.65;70.72
15263;BME280;7733;51.554;13.590;2023-03-30T08:26:27;99554.88;;;15.74;69.59
15263;BME280;7733;51.554;13.590;2023-03-30T08:28:53;99557.56;;;15.91;70.47
15263;BME280;7733;51.554;13.590;2023-03-30T08:31:19;99554.84;;;15.93;69.54
15263;BME280;7733;51.554;13.590;2023-03-30T08:33:47;99557.09;;;16.00;69.41
15263;BME280;7733;51.554;13.590;2023-03-30T08:36:14;99550.66;;;16.06;69.30
15263;BME280;7733;51.554;13.590;2023-03-30T08:38:41;99557.31;;;15.96;69.36
15263;BME280;7733;51.554;13.590;2023-03-30T08:44:27;99574.47;;;16.06;69.21
15263;BME280;7733;51.554;13.590;2023-03-30T08:46:55;99565.69;;;16.05;69.75
15263;BME280;7733;51.554;13.590;2023-03-30T08:49:21;99569.47;;;16.00;70.29
15263;BME280;7733;51.554;13.590;2023-03-30T08:51:49;99571.44;;;16.13;69.31
15263;BME280;7733;51.554;13.590;2023-03-30T08:54:21;99580.47;;;16.27;69.30
15263;BME280;7733;51.554;13.590;2023-03-30T08:57:21;99580.16;;;16.16;70.74
15263;BME280;7733;51.554;13.590;2023-03-30T09:00:29;99586.84;;;16.05;70.27
15263;BME280;7733;51.554;13.590;2023-03-30T09:03:25;99603.97;;;16.16;70.02
15263;BME280;7733;51.554;13.590;2023-03-30T09:06:09;99597.13;;;16.11;70.46
15263;BME280;7733;51.554;13.590;2023-03-30T09:08:36;99607.53;;;16.15;70.49
15263;BME280;7733;51.554;13.590;2023-03-30T09:11:09;99608.72;;;16.09;70.72
15263;BME280;7733;51.554;13.590;2023-03-30T09:13:38;99611.09;;;15.96;70.53
15263;BME280;7733;51.554;13.590;2023-03-30T09:20:05;99614.34;;;16.01;70.52
15263;BME280;7733;51.554;13.590;2023-03-30T09:22:41;99612.53;;;16.03;70.54
15263;BME280;7733;51.554;13.590;2023-03-30T09:29:09;99600.63;;;16.29;69.58
15263;BME280;7733;51.554;13.590;2023-03-30T09:34:25;99595.59;;;16.42;68.69
15263;BME280;7733;51.554;13.590;2023-03-30T09:37:02;99601.00;;;16.39;68.14
15263;BME280;7733;51.554;13.590;2023-03-30T09:39:30;99596.13;;;16.49;67.72
15263;BME280;7733;51.554;13.590;2023-03-30T09:47:26;99604.03;;;16.67;66.61
15263;BME280;7733;51.554;13.590;2023-03-30T09:50:02;99600.28;;;16.71;66.56
15263;BME280;7733;51.554;13.590;2023-03-30T09:52:31;99607.66;;;16.65;66.03
15263;BME280;7733;51.554;13.590;2023-03-30T09:57:45;99609.44;;;16.82;65.63
15263;BME280;7733;51.554;13.590;2023-03-30T10:03:04;99611.16;;;16.65;64.88
15263;BME280;7733;51.554;13.590;2023-03-30T10:05:34;99613.69;;;16.68;65.33
15263;BME280;7733;51.554;13.590;2023-03-30T10:08:17;99614.94;;;16.60;65.18
15263;BME280;7733;51.554;13.590;2023-03-30T10:10:45;99619.63;;;16.55;65.94
15263;BME280;7733;51.554;13.590;2023-03-30T10:13:18;99608.75;;;16.43;66.51
15263;BME280;7733;51.554;13.590;2023-03-30T10:15:51;99628.22;;;16.42;66.52
15263;BME280;7733;51.554;13.590;2023-03-30T10:23:42;99627.09;;;16.29;68.96
15263;BME280;7733;51.554;13.590;2023-03-30T10:26:18;99614.84;;;16.09;70.05
15263;BME280;7733;51.554;13.590;2023-03-30T10:29:13;99637.31;;;16.01;71.51
15263;BME280;7733;51.554;13.590;2023-03-30T10:31:47;99634.63;;;16.02;72.25
15263;BME280;7733;51.554;13.590;2023-03-30T10:34:43;99637.25;;;16.02;73.31
15263;BME280;7733;51.554;13.590;2023-03-30T10:37:16;99633.28;;;16.11;72.81
15263;BME280;7733;51.554;13.590;2023-03-30T10:39:47;99626.59;;;16.04;73.16
15263;BME280;7733;51.554;13.590;2023-03-30T10:42:23;99623.44;;;15.96;74.09
15263;BME280;7733;51.554;13.590;2023-03-30T10:44:54;99617.72;;;16.05;74.75
15263;BME280;7733;51.554;13.590;2023-03-30T10:55:23;99619.63;;;15.65;80.41
15263;BME280;7733;51.554;13.590;2023-03-30T10:58:11;99623.13;;;15.66;81.41
15263;BME280;7733;51.554;13.590;2023-03-30T11:03:28;99632.00;;;15.65;83.12
15263;BME280;7733;51.554;13.590;2023-03-30T11:06:24;99617.22;;;15.40;83.67
15263;BME280;7733;51.554;13.590;2023-03-30T11:08:53;99621.16;;;15.50;83.90
15263;BME280;7733;51.554;13.590;2023-03-30T11:11:35;99614.72;;;15.56;83.48
15263;BME280;7733;51.554;13.590;2023-03-30T11:14:14;99616.88;;;15.29;85.39
15263;BME280;7733;51.554;13.590;2023-03-30T11:16:51;99607.59;;;15.58;84.39
15263;BME280;7733;51.554;13.590;2023-03-30T11:19:25;99609.34;;;15.20;85.60
15263;BME280;7733;51.554;13.590;2023-03-30T11:22:22;99613.44;;;15.27;86.18
15263;BME280;7733;51.554;13.590;2023-03-30T11:24:54;99619.44;;;15.12;90.54
15263;BME280;7733;51.554;13.590;2023-03-30T11:27:30;99611.09;;;15.01;94.14
15263;BME280;7733;51.554;13.590;2023-03-30T11:30:13;99613.31;;;14.71;99.89
15263;BME280;7733;51.554;13.590;2023-03-30T11:33:16;99604.91;;;14.81;100.00
15263;BME280;7733;51.554;13.590;2023-03-30T11:35:53;99599.00;;;14.76;100.00
15263;BME280;7733;51.554;13.590;2023-03-30T11:38:34;99589.97;;;15.01;98.13
15263;BME280;7733;51.554;13.590;2023-03-30T11:41:14;99582.59;;;15.09;97.00
15263;BME280;7733;51.554;13.590;2023-03-30T11:43:40;99576.81;;;15.38;94.46
15263;BME280;7733;51.554;13.590;2023-03-30T11:46:32;99571.59;;;15.56;90.71
15263;BME280;7733;51.554;13.590;2023-03-30T11:49:23;99571.97;;;16.03;89.00
15263;BME280;7733;51.554;13.590;2023-03-30T11:52:29;99554.13;;;15.89;86.54
15263;BME280;7733;51.554;13.590;2023-03-30T11:58:46;99536.88;;;16.17;82.87
15263;BME280;7733;51.554;13.590;2023-03-30T12:01:28;99550.88;;;16.19;82.88
15263;BME280;7733;51.554;13.590;2023-03-30T12:04:06;99551.34;;;16.09;81.17
15263;BME280;7733;51.554;13.590;2023-03-30T12:07:08;99545.28;;;16.07;80.37
15263;BME280;7733;51.554;13.590;2023-03-30T12:09:53;99526.69;;;16.26;79.90
15263;BME280;7733;51.554;13.590;2023-03-30T12:12:34;99538.22;;;16.08;80.39
15263;BME280;7733;51.554;13.590;2023-03-30T12:17:58;99515.06;;;16.63;78.07
15263;BME280;7733;51.554;13.590;2023-03-30T12:26:04;99497.03;;;16.87;74.66
15263;BME280;7733;51.554;13.590;2023-03-30T12:28:43;99485.34;;;17.07;74.62
15263;BME280;7733;51.554;13.590;2023-03-30T12:31:10;99485.56;;;16.87;75.36
15263;BME280;7733;51.554;13.590;2023-03-30T12:33:50;99481.31;;;17.31;74.22
15263;BME280;7733;51.554;13.590;2023-03-30T12:36:30;99485.06;;;16.96;73.86
15263;BME280;7733;51.554;13.590;2023-03-30T12:39:01;99494.63;;;16.83;74.22
15263;BME280;7733;51.554;13.590;2023-03-30T12:41:41;99500.09;;;16.95;74.42
15263;BME280;7733;51.554;13.590;2023-03-30T12:44:41;99481.56;;;16.95;74.43
15263;BME280;7733;51.554;13.590;2023-03-30T12:56:36;99451.94;;;17.05;75.06
15263;BME280;7733;51.554;13.590;2023-03-30T13:05:00;99450.94;;;17.99;71.92
15263;BME280;7733;51.554;13.590;2023-03-30T13:07:30;99454.25;;;17.72;69.92
15263;BME280;7733;51.554;13.590;2023-03-30T13:12:56;99459.38;;;17.59;70.48
15263;BME280;7733;51.554;13.590;2023-03-30T13:15:38;99463.25;;;17.70;70.38
15263;BME280;7733;51.554;13.590;2023-03-30T13:23:32;99437.03;;;17.33;71.05
15263;BME280;7733;51.554;13.590;2023-03-30T13:26:24;99437.16;;;17.62;70.98
15263;BME280;7733;51.554;13.590;2023-03-30T13:29:06;99438.06;;;17.61;70.59
15263;BME280;7733;51.554;13.590;2023-03-30T13:32:02;99435.56;;;17.89;70.42
15263;BME280;7733;51.554;13.590;2023-03-30T13:35:00;99438.41;;;18.01;68.83
15263;BME280;7733;51.554;13.590;2023-03-30T13:38:01;99431.06;;;18.06;68.62
15263;BME280;7733;51.554;13.590;2023-03-30T13:46:35;99422.06;;;18.79;66.59
15263;BME280;7733;51.554;13.590;2023-03-30T13:49:38;99408.09;;;19.04;65.09
15263;BME280;7733;51.554;13.590;2023-03-30T13:52:29;99419.75;;;19.02;64.43
15263;BME280;7733;51.554;13.590;2023-03-30T13:54:56;99398.44;;;19.16;63.69
15263;BME280;7733;51.554;13.590;2023-03-30T13:57:36;99407.88;;;18.66;63.20
15263;BME280;7733;51.554;13.590;2023-03-30T14:00:29;99407.75;;;18.39;63.63
15263;BME280;7733;51.554;13.590;2023-03-30T14:06:13;99385.81;;;18.78;62.86
15263;BME280;7733;51.554;13.590;2023-03-30T14:08:44;99386.75;;;19.19;62.77
15263;BME280;7733;51.554;13.590;2023-03-30T14:11:32;99389.13;;;18.96;61.97
15263;BME280;7733;51.554;13.590;2023-03-30T14:14:02;99379.59;;;19.06;61.97
15263;BME280;7733;51.554;13.590;2023-03-30T14:16:34;99390.25;;;19.06;61.30
15263;BME280;7733;51.554;13.590;2023-03-30T14:21:46;99381.44;;;18.92;60.35
15263;BME280;7733;51.554;13.590;2023-03-30T14:24:17;99379.41;;;18.82;60.80
15263;BME280;7733;51.554;13.590;2023-03-30T14:26:46;99366.69;;;18.73;60.33
15263;BME280;7733;51.554;13.590;2023-03-30T14:29:19;99380.63;;;18.77;60.62
15263;BME280;7733;51.554;13.590;2023-03-30T14:31:49;99369.34;;;19.00;59.46
15263;BME280;7733;51.554;13.590;2023-03-30T14:34:25;99364.09;;;18.86;58.69
15263;BME280;7733;51.554;13.590;2023-03-30T14:37:12;99362.50;;;18.83;58.02
15263;BME280;7733;51.554;13.590;2023-03-30T14:39:53;99357.97;;;18.98;57.88
15263;BME280;7733;51.554;13.590;2023-03-30T14:42:31;99383.13;;;18.66;57.90
15263;BME280;7733;51.554;13.590;2023-03-30T14:45:01;99374.84;;;18.70;57.97
15263;BME280;7733;51.554;13.590;2023-03-30T14:47:27;99374.94;;;18.69;57.98
15263;BME280;7733;51.554;13.590;2023-03-30T14:49:58;99377.06;;;18.64;57.96
15263;BME280;7733;51.554;13.590;2023-03-30T14:52:37;99376.63;;;18.41;58.91
15263;BME280;7733;51.554;13.590;2023-03-30T14:55:04;99371.63;;;18.51;59.35
15263;BME280;7733;51.554;13.590;2023-03-30T14:57:38;99365.16;;;18.55;59.14
15263;BME280;7733;51.554;13.590;2023-03-30T15:00:14;99365.09;;;18.42;59.34
15263;BME280;7733;51.554;13.590;2023-03-30T15:02:42;99363.56;;;18.52;59.53
15263;BME280;7733;51.554;13.590;2023-03-30T15:05:10;99387.94;;;18.45;59.81
15263;BME280;7733;51.554;13.590;2023-03-30T15:07:36;99457.38;;;17.33;61.15
15263;BME280;7733;51.554;13.590;2023-03-30T15:10:02;99495.19;;;15.87;63.43
15263;BME280;7733;51.554;13.590;2023-03-30T15:12:37;99496.50;;;15.05;67.24
15263;BME280;7733;51.554;13.590;2023-03-30T15:15:08;99495.88;;;14.79;71.40
15263;BME280;7733;51.554;13.590;2023-03-30T15:17:48;99506.91;;;14.29;78.29
15263;BME280;7733;51.554;13.590;2023-03-30T15:20:14;99513.38;;;14.02;80.14
15263;BME280;7733;51.554;13.590;2023-03-30T15:22:47;99524.44;;;14.30;80.00
15263;BME280;7733;51.554;13.590;2023-03-30T15:25:21;99526.16;;;14.31;78.94
15263;BME280;7733;51.554;13.590;2023-03-30T15:28:06;99529.06;;;14.05;79.91
15263;BME280;7733;51.554;13.590;2023-03-30T15:30:44;99504.97;;;14.13;80.18